Time,TemperatureF,DewpointF,PressureIn,WindDirection,WindDirectionDegrees,WindSpeedMPH,WindSpeedGustMPH,Humidity,HourlyPrecipIn,Conditions,Clouds,dailyrainin,SoftwareType,DateUTC
2013-03-23 00:06:00,39.0,28.0,30.10,SE,133,0.0,-999.0,64,-99.99,,,0.00,weatherlink.com 1.10,2013-03-23 04:06:00,
2013-03-23 00:21:00,38.7,29.0,30.11,SE,133,0.0,-999.0,69,-99.99,,,0.00,weatherlink.com 1.10,2013-03-23 04:21:00,
2013-03-23 00:36:00,38.8,29.0,30.11,SE,133,0.0,-999.0,69,-99.99,,,0.00,weatherlink.com 1.10,2013-03-23 04:36:00,
2013-03-23 00:51:00,38.8,30.0,30.10,SE,133,0.0,-999.0,72,-99.99,,,0.00,weatherlink.com 1.10,2013-03-23 04:51:00,
2013-03-23 01:21:00,38.3,30.0,30.09,SE,133,0.0,-999.0,71,-99.99,,,0.00,weatherlink.com 1.10,2013-03-23 05:21:00,
2013-03-23 01:36:00,37.9,30.0,30.10,SE,133,0.0,-999.0,72,-99.99,,,0.00,weatherlink.com 1.10,2013-03-23 05:36:00,
2013-03-23 01:51:00,37.5,30.0,30.08,SE,133,0.0,-999.0,74,-99.99,,,0.00,weatherlink.com 1.10,2013-03-23 05:51:00,
2013-03-23 02:06:00,37.2,29.0,30.09,SE,133,0.0,-999.0,72,-99.99,,,0.00,weatherlink.com 1.10,2013-03-23 06:06:00,
2013-03-23 02:21:00,37.1,30.0,30.07,SE,133,0.0,-999.0,74,-99.99,,,0.00,weatherlink.com 1.10,2013-03-23 06:21:00,
2013-03-23 02:36:00,37.2,29.0,30.08,SE,133,0.0,-999.0,73,-99.99,,,0.00,weatherlink.com 1.10,2013-03-23 06:36:00,
2013-03-23 02:51:00,36.9,30.0,30.09,SE,133,0.0,-999.0,75,-99.99,,,0.00,weatherlink.com 1.10,2013-03-23 06:51:00,
2013-03-23 03:06:00,36.9,29.0,30.08,SE,133,0.0,-999.0,72,-99.99,,,0.00,weatherlink.com 1.10,2013-03-23 07:06:00,
2013-03-23 03:21:00,37.2,30.0,30.08,SE,133,0.0,-999.0,74,-99.99,,,0.00,weatherlink.com 1.10,2013-03-23 07:21:00,
2013-03-23 03:36:00,37.7,30.0,30.07,SE,133,0.0,-999.0,75,-99.99,,,0.00,weatherlink.com 1.10,2013-03-23 07:36:00,
2013-03-23 03:51:00,37.7,31.0,30.07,SE,133,0.0,-999.0,76,-99.99,,,0.00,weatherlink.com 1.10,2013-03-23 07:51:00,
2013-03-23 04:06:00,37.8,31.0,30.05,SE,133,0.0,-999.0,75,-99.99,,,0.00,weatherlink.com 1.10,2013-03-23 08:06:00,
2013-03-23 04:21:00,38.0,31.0,30.05,SE,133,0.0,-999.0,76,-99.99,,,0.00,weatherlink.com 1.10,2013-03-23 08:21:00,
2013-03-23 04:36:00,37.9,31.0,30.06,SE,133,0.0,-999.0,76,-99.99,,,0.00,weatherlink.com 1.10,2013-03-23 08:36:00,
2013-03-23 04:51:00,37.9,31.0,30.05,SE,133,0.0,-999.0,75,-99.99,,,0.00,weatherlink.com 1.10,2013-03-23 08:51:00,
2013-03-23 05:06:00,38.0,31.0,30.05,SE,133,0.0,-999.0,75,-99.99,,,0.00,weatherlink.com 1.10,2013-03-23 09:06:00,
2013-03-23 05:21:00,37.9,31.0,30.04,SE,133,0.0,-999.0,77,-99.99,,,0.00,weatherlink.com 1.10,2013-03-23 09:21:00,
2013-03-23 05:36:00,37.9,31.0,30.04,SE,133,0.0,-999.0,76,-99.99,,,0.00,weatherlink.com 1.10,2013-03-23 09:36:00,
2013-03-23 05:51:00,37.9,31.0,30.03,SE,133,0.0,-999.0,76,-99.99,,,0.00,weatherlink.com 1.10,2013-03-23 09:51:00,
2013-03-23 06:06:00,38.2,31.0,30.04,SE,133,0.0,-999.0,75,-99.99,,,0.00,weatherlink.com 1.10,2013-03-23 10:06:00,
2013-03-23 06:22:00,38.3,31.0,30.05,SE,133,0.0,-999.0,76,-99.99,,,0.00,weatherlink.com 1.10,2013-03-23 10:22:00,
2013-03-23 06:36:00,38.2,32.0,30.06,SE,133,0.0,-999.0,77,-99.99,,,0.00,weatherlink.com 1.10,2013-03-23 10:36:00,
2013-03-23 06:51:00,38.2,32.0,30.06,SE,133,0.0,-999.0,77,-99.99,,,0.00,weatherlink.com 1.10,2013-03-23 10:51:00,
2013-03-23 07:07:00,38.4,32.0,30.07,SE,133,0.0,-999.0,77,-99.99,,,0.00,weatherlink.com 1.10,2013-03-23 11:07:00,
2013-03-23 07:22:00,38.5,32.0,30.08,SE,133,0.0,-999.0,77,-99.99,,,0.00,weatherlink.com 1.10,2013-03-23 11:22:00,
2013-03-23 07:51:00,38.6,30.0,30.06,SE,133,0.0,-999.0,71,-99.99,,,0.00,weatherlink.com 1.10,2013-03-23 11:51:00,
2013-03-23 08:10:00,38.2,24.0,30.06,SE,133,0.0,-999.0,58,-99.99,,,0.00,weatherlink.com 1.10,2013-03-23 12:10:00,
2013-03-23 08:21:00,38.1,23.0,30.07,SE,133,0.0,-999.0,54,-99.99,,,0.00,weatherlink.com 1.10,2013-03-23 12:21:00,
2013-03-23 08:36:00,38.5,15.0,30.08,SE,133,0.0,-999.0,38,-99.99,,,0.00,weatherlink.com 1.10,2013-03-23 12:36:00,
2013-03-23 08:54:00,38.7,11.0,30.09,SE,133,0.0,-999.0,32,-99.99,,,0.00,weatherlink.com 1.10,2013-03-23 12:54:00,
2013-03-23 09:06:00,38.9,11.0,30.09,SE,133,0.0,-999.0,32,-99.99,,,0.00,weatherlink.com 1.10,2013-03-23 13:06:00,
2013-03-23 09:21:00,39.0,15.0,30.09,SE,133,0.0,-999.0,38,-99.99,,,0.00,weatherlink.com 1.10,2013-03-23 13:21:00,
2013-03-23 09:36:00,39.4,14.0,30.08,SE,133,0.0,-999.0,36,-99.99,,,0.00,weatherlink.com 1.10,2013-03-23 13:36:00,
2013-03-23 09:51:00,40.1,16.0,30.09,SE,133,0.0,-999.0,37,-99.99,,,0.00,weatherlink.com 1.10,2013-03-23 13:51:00,
2013-03-23 10:06:00,40.1,21.0,30.09,SE,133,0.0,-999.0,46,-99.99,,,0.00,weatherlink.com 1.10,2013-03-23 14:06:00,
2013-03-23 10:21:00,40.5,20.0,30.10,SE,133,0.0,-999.0,44,-99.99,,,0.00,weatherlink.com 1.10,2013-03-23 14:21:00,
2013-03-23 10:36:00,40.6,23.0,30.08,SE,133,0.0,-999.0,49,-99.99,,,0.00,weatherlink.com 1.10,2013-03-23 14:36:00,
2013-03-23 10:51:00,40.7,29.0,30.07,SE,133,0.0,-999.0,64,-99.99,,,0.00,weatherlink.com 1.10,2013-03-23 14:51:00,
2013-03-23 11:06:00,41.1,30.0,30.07,SE,133,0.0,-999.0,64,-99.99,,,0.00,weatherlink.com 1.10,2013-03-23 15:06:00,
2013-03-23 11:21:00,41.2,33.0,30.07,SE,133,0.0,-999.0,73,-99.99,,,0.00,weatherlink.com 1.10,2013-03-23 15:21:00,
2013-03-23 11:36:00,41.6,34.0,30.07,SE,133,0.0,-999.0,74,-99.99,,,0.00,weatherlink.com 1.10,2013-03-23 15:36:00,
2013-03-23 11:51:00,41.9,35.0,30.07,SE,133,0.0,-999.0,75,-99.99,,,0.00,weatherlink.com 1.10,2013-03-23 15:51:00,
2013-03-23 12:06:00,41.9,34.0,30.08,SE,133,0.0,-999.0,74,-99.99,,,0.00,weatherlink.com 1.10,2013-03-23 16:06:00,
2013-03-23 12:21:00,42.3,35.0,30.07,SE,133,0.0,-999.0,75,-99.99,,,0.00,weatherlink.com 1.10,2013-03-23 16:21:00,
2013-03-23 12:36:00,43.0,35.0,30.06,SE,133,0.0,-999.0,74,-99.99,,,0.00,weatherlink.com 1.10,2013-03-23 16:36:00,
2013-03-23 13:06:00,44.5,37.0,30.05,NNE,19,0.0,-999.0,74,-99.99,,,0.00,weatherlink.com 1.10,2013-03-23 17:06:00,
2013-03-23 13:21:00,45.4,37.0,30.05,NNW,340,0.0,-999.0,73,-99.99,,,0.00,weatherlink.com 1.10,2013-03-23 17:21:00,
2013-03-23 13:36:00,46.6,38.0,30.03,NNW,340,0.0,-999.0,73,-99.99,,,0.00,weatherlink.com 1.10,2013-03-23 17:36:00,
2013-03-23 13:51:00,48.1,40.0,30.03,NNW,338,1.0,-999.0,73,-99.99,,,0.00,weatherlink.com 1.10,2013-03-23 17:51:00,
2013-03-23 14:06:00,49.4,41.0,30.02,NW,321,0.0,-999.0,72,-99.99,,,0.00,weatherlink.com 1.10,2013-03-23 18:06:00,
2013-03-23 14:21:00,52.1,43.0,30.00,NNW,330,3.0,-999.0,72,-99.99,,,0.00,weatherlink.com 1.10,2013-03-23 18:21:00,
2013-03-23 14:36:00,53.9,44.0,30.00,NNE,20,0.0,-999.0,70,-99.99,,,0.00,weatherlink.com 1.10,2013-03-23 18:36:00,
2013-03-23 14:51:00,54.4,44.0,29.99,NW,316,0.0,-999.0,68,-99.99,,,0.00,weatherlink.com 1.10,2013-03-23 18:51:00,
2013-03-23 15:06:00,55.9,44.0,29.98,SSE,160,0.0,-999.0,64,-99.99,,,0.00,weatherlink.com 1.10,2013-03-23 19:06:00,
2013-03-23 15:36:00,56.2,44.0,29.97,WNW,300,4.0,-999.0,64,-99.99,,,0.00,weatherlink.com 1.10,2013-03-23 19:36:00,
2013-03-23 15:51:00,57.1,44.0,29.96,East,94,0.0,-999.0,63,-99.99,,,0.00,weatherlink.com 1.10,2013-03-23 19:51:00,
2013-03-23 16:06:00,57.5,44.0,29.95,WNW,298,0.0,-999.0,62,-99.99,,,0.00,weatherlink.com 1.10,2013-03-23 20:06:00,
2013-03-23 16:21:00,57.5,45.0,29.95,NE,39,0.0,-999.0,63,-99.99,,,0.00,weatherlink.com 1.10,2013-03-23 20:21:00,
2013-03-23 16:36:00,57.4,45.0,29.95,ENE,78,3.0,-999.0,63,-99.99,,,0.00,weatherlink.com 1.10,2013-03-23 20:36:00,
2013-03-23 17:06:00,57.9,45.0,29.94,ENE,69,0.0,-999.0,63,-99.99,,,0.00,weatherlink.com 1.10,2013-03-23 21:06:00,
2013-03-23 17:21:00,58.1,44.0,29.95,SSE,150,4.0,-999.0,59,-99.99,,,0.00,weatherlink.com 1.10,2013-03-23 21:21:00,
2013-03-23 17:36:00,57.2,44.0,29.94,East,94,1.0,-999.0,62,-99.99,,,0.00,weatherlink.com 1.10,2013-03-23 21:36:00,
2013-03-23 17:51:00,57.1,44.0,29.93,East,98,2.0,-999.0,62,-99.99,,,0.00,weatherlink.com 1.10,2013-03-23 21:51:00,
2013-03-23 18:06:00,56.6,43.0,29.94,SE,133,0.0,-999.0,61,-99.99,,,0.00,weatherlink.com 1.10,2013-03-23 22:06:00,
2013-03-23 18:21:00,55.6,42.0,29.95,ESE,120,0.0,-999.0,61,-99.99,,,0.00,weatherlink.com 1.10,2013-03-23 22:21:00,
2013-03-23 18:36:00,54.7,42.0,29.95,SE,146,3.0,-999.0,63,-99.99,,,0.00,weatherlink.com 1.10,2013-03-23 22:36:00,
2013-03-23 18:51:00,53.8,42.0,29.95,SE,141,2.0,-999.0,64,-99.99,,,0.00,weatherlink.com 1.10,2013-03-23 22:51:00,
2013-03-23 19:21:00,52.2,43.0,29.97,ESE,119,0.0,-999.0,70,-99.99,,,0.00,weatherlink.com 1.10,2013-03-23 23:21:00,
2013-03-23 19:36:00,51.3,43.0,29.97,ESE,117,0.0,-999.0,72,-99.99,,,0.00,weatherlink.com 1.10,2013-03-23 23:36:00,
2013-03-23 19:51:00,50.4,42.0,29.96,ESE,116,1.0,-999.0,73,-99.99,,,0.00,weatherlink.com 1.10,2013-03-23 23:51:00,
2013-03-23 20:06:00,49.4,41.0,29.96,ESE,117,0.0,-999.0,74,-99.99,,,0.00,weatherlink.com 1.10,2013-03-24 00:06:00,
2013-03-23 20:21:00,48.5,40.0,29.96,SE,146,0.0,-999.0,72,-99.99,,,0.00,weatherlink.com 1.10,2013-03-24 00:21:00,
2013-03-23 20:51:00,47.7,38.0,29.97,ESE,113,0.0,-999.0,68,-99.99,,,0.00,weatherlink.com 1.10,2013-03-24 00:51:00,
2013-03-23 21:06:00,47.5,38.0,29.96,ESE,113,0.0,-999.0,69,-99.99,,,0.00,weatherlink.com 1.10,2013-03-24 01:06:00,
2013-03-23 21:36:00,46.7,37.0,29.97,ESE,119,0.0,-999.0,69,-99.99,,,0.00,weatherlink.com 1.10,2013-03-24 01:36:00,
2013-03-23 21:51:00,46.3,37.0,29.97,ESE,119,0.0,-999.0,69,-99.99,,,0.00,weatherlink.com 1.10,2013-03-24 01:51:00,
2013-03-23 22:06:00,45.9,36.0,29.97,ESE,119,0.0,-999.0,68,-99.99,,,0.00,weatherlink.com 1.10,2013-03-24 02:06:00,
2013-03-23 22:21:00,45.2,34.0,29.95,ESE,119,0.0,-999.0,66,-99.99,,,0.00,weatherlink.com 1.10,2013-03-24 02:21:00,
2013-03-23 22:36:00,44.9,34.0,29.96,ESE,119,0.0,-999.0,65,-99.99,,,0.00,weatherlink.com 1.10,2013-03-24 02:36:00,
2013-03-23 22:51:00,44.6,33.0,29.96,ESE,119,0.0,-999.0,64,-99.99,,,0.00,weatherlink.com 1.10,2013-03-24 02:51:00,
2013-03-23 23:06:00,44.8,33.0,29.95,ESE,105,0.0,-999.0,64,-99.99,,,0.00,weatherlink.com 1.10,2013-03-24 03:06:00,
2013-03-23 23:21:00,45.1,31.0,29.96,SSW,203,0.0,-999.0,58,-99.99,,,0.00,weatherlink.com 1.10,2013-03-24 03:21:00,
2013-03-23 23:36:00,45.4,29.0,29.95,ESE,112,0.0,-999.0,54,-99.99,,,0.00,weatherlink.com 1.10,2013-03-24 03:36:00,
2013-03-23 23:51:00,45.4,28.0,29.94,SE,128,0.0,-999.0,50,-99.99,,,0.00,weatherlink.com 1.10,2013-03-24 03:51:00,